Elk Park, North Carolina
Current Conditions -  °F | °C
As of 12:35 PM on Wednesday 26 Nov 2014 (Local Time) from K0A9 Reporting Station
Overcast Overcast  
Wind Chill: 39°   Ceiling: 1200
Heat Index: 39°   Visibility: 10mi
Dew Point: 36°   Wind: 3mph
Humidity: 87%   Direction: 250°WSW
Pressure: 30.02"   Gusts: NA
Location:  36.16°N, 81.98°W
Report Text: K0A9 261735Z AUTO 25003KT 10SM OVC012 04/02 A3002 RMK
Loading
Personal Weather Stations






























Interactive Weather Map New forecast layout! Learn more

10-Day Weather Forecast

Advertisements
Track Severe Weather on mobile